Time;durP1;ratioP1;P1;durP2;ratioP2;P2;SDS_P1;SDS_P2;PMS_P1;PMS_P2;Temp;Humidity;BMP_temperature;BMP_pressure;BME280_temperature;BME280_humidity;BME280_pressure;Samples;Min_cycle;Max_cycle;Signal;HPM_P1;HPM_P2
2023/07/22 00:00:47;;;;;;;;;;;21.90;57.10;;;;;;4987795;28;20344;-72
2023/07/22 00:03:13;;;;;;;;;;;21.90;57.20;;;;;;4979514;28;19929;-73
2023/07/22 00:05:40;;;;;;;;;;;21.80;57.20;;;;;;4986829;28;19929;-73
2023/07/22 00:08:07;;;;;;;;;;;21.80;57.30;;;;;;4979742;28;19930;-73
2023/07/22 00:10:33;;;;;;;;;;;21.80;57.30;;;;;;4982820;28;19929;-73
2023/07/22 00:13:00;;;;;;;;;;;21.80;57.40;;;;;;4981101;28;19941;-72
2023/07/22 00:15:28;;;;;;;;;;;21.80;57.50;;;;;;4984757;28;19929;-73
2023/07/22 00:17:56;;;;;;;;;;;21.80;57.50;;;;;;4981142;28;19930;-72
2023/07/22 00:20:23;;;;;;;;;;;21.80;57.60;;;;;;4984989;28;19929;-71
2023/07/22 00:22:50;;;;;;;;;;;21.70;57.60;;;;;;4986306;28;20526;-72
2023/07/22 00:25:17;;;;;;;;;;;21.70;57.70;;;;;;4975265;28;20013;-72
2023/07/22 00:27:43;;;;;;;;;;;21.70;57.70;;;;;;4988189;28;20403;-70
2023/07/22 00:30:10;;;;;;;;;;;21.70;57.80;;;;;;4982995;28;19929;-73
2023/07/22 00:32:39;;;;;;;;;;;21.60;57.80;;;;;;4988449;28;19936;-72
2023/07/22 00:35:06;;;;;;;;;;;21.60;57.90;;;;;;4986835;28;20418;-71
2023/07/22 00:37:33;;;;;;;;;;;21.60;57.90;;;;;;4984382;28;19930;-72
2023/07/22 00:39:59;;;;;;;;;;;21.60;58.00;;;;;;4986394;28;19952;-71
2023/07/22 00:42:26;;;;;;;;;;;21.50;57.90;;;;;;4984048;28;19930;-72
2023/07/22 00:44:52;;;;;;;;;;;21.60;58.10;;;;;;4986048;28;19934;-72
2023/07/22 00:47:20;;;;;;;;;;;21.50;58.10;;;;;;4981432;28;20014;-73
2023/07/22 00:49:49;;;;;;;;;;;21.50;58.10;;;;;;4981677;28;19937;-72
2023/07/22 00:52:16;;;;;;;;;;;21.50;58.10;;;;;;4976236;28;20380;-72
2023/07/22 00:54:43;;;;;;;;;;;21.40;58.10;;;;;;4985478;28;20384;-72
2023/07/22 00:57:10;;;;;;;;;;;21.40;58.20;;;;;;4984594;28;19934;-73
2023/07/22 00:59:36;;;;;;;;;;;21.40;58.30;;;;;;4988085;28;19930;-72
2023/07/22 01:02:03;;;;;;;;;;;21.40;58.30;;;;;;4979986;28;19929;-71
2023/07/22 01:04:29;;;;;;;;;;;21.40;58.40;;;;;;4985334;28;19937;-72
2023/07/22 01:06:58;;;;;;;;;;;21.30;58.40;;;;;;4986554;28;19934;-72
2023/07/22 01:09:25;;;;;;;;;;;21.30;58.40;;;;;;4974549;28;20009;-71
2023/07/22 01:11:52;;;;;;;;;;;21.30;58.50;;;;;;4987277;28;19933;-72
2023/07/22 01:14:18;;;;;;;;;;;21.30;58.60;;;;;;4980011;28;20360;-72
2023/07/22 01:16:45;;;;;;;;;;;21.30;58.60;;;;;;4980685;28;19930;-72
2023/07/22 01:19:13;;;;;;;;;;;21.30;58.70;;;;;;4979448;28;19934;-72
2023/07/22 01:21:40;;;;;;;;;;;21.20;58.60;;;;;;4985556;28;20618;-72
2023/07/22 01:24:08;;;;;;;;;;;21.20;58.80;;;;;;4982557;28;19929;-72
2023/07/22 01:26:34;;;;;;;;;;;21.20;58.80;;;;;;4981278;28;20824;-72
2023/07/22 01:29:05;;;;;;;;;;;21.20;58.80;;;;;;4986058;28;19929;-74
2023/07/22 01:31:35;;;;;;;;;;;21.10;58.80;;;;;;4984464;28;19934;-72
2023/07/22 01:34:03;;;;;;;;;;;21.20;58.90;;;;;;4983339;28;20021;-72
2023/07/22 01:36:30;;;;;;;;;;;21.10;58.90;;;;;;4983709;28;19934;-72
2023/07/22 01:38:56;;;;;;;;;;;21.10;59.00;;;;;;4985661;28;19938;-75
2023/07/22 01:41:24;;;;;;;;;;;21.10;59.00;;;;;;4980594;28;19937;-72
2023/07/22 01:43:51;;;;;;;;;;;21.10;59.10;;;;;;4983161;28;20329;-73
2023/07/22 01:46:17;;;;;;;;;;;21.10;59.20;;;;;;4985032;28;19940;-73
2023/07/22 01:48:44;;;;;;;;;;;21.10;59.20;;;;;;4985770;28;19929;-72
2023/07/22 01:51:11;;;;;;;;;;;21.00;59.20;;;;;;4982576;28;19936;-72
2023/07/22 01:53:37;;;;;;;;;;;21.00;59.30;;;;;;4987203;28;20044;-72
2023/07/22 01:56:04;;;;;;;;;;;21.00;59.40;;;;;;4979988;28;20416;-74
2023/07/22 01:58:32;;;;;;;;;;;21.00;59.40;;;;;;4982762;28;20285;-71
2023/07/22 02:00:59;;;;;;;;;;;20.90;59.40;;;;;;4977392;28;19941;-73
2023/07/22 02:03:26;;;;;;;;;;;20.90;59.50;;;;;;4985770;28;20025;-73
2023/07/22 02:05:53;;;;;;;;;;;20.90;59.50;;;;;;4984764;28;20027;-72
2023/07/22 02:08:19;;;;;;;;;;;20.90;59.60;;;;;;4979578;28;19930;-73
2023/07/22 02:10:46;;;;;;;;;;;20.90;59.70;;;;;;4984862;28;19930;-73
2023/07/22 02:13:12;;;;;;;;;;;20.80;59.70;;;;;;4979596;28;20548;-72
2023/07/22 02:15:42;;;;;;;;;;;20.80;59.70;;;;;;4978283;28;20578;-73
2023/07/22 02:18:08;;;;;;;;;;;20.80;59.70;;;;;;4984704;28;19929;-71
2023/07/22 02:20:35;;;;;;;;;;;20.80;59.80;;;;;;4984638;28;19930;-72
2023/07/22 02:23:01;;;;;;;;;;;20.80;59.90;;;;;;4982113;28;19934;-72
2023/07/22 02:25:28;;;;;;;;;;;20.70;59.90;;;;;;4979376;28;19930;-71
2023/07/22 02:27:55;;;;;;;;;;;20.70;60.00;;;;;;4983921;28;19929;-72
2023/07/22 02:30:21;;;;;;;;;;;20.70;60.00;;;;;;4978390;28;19929;-73
2023/07/22 02:32:49;;;;;;;;;;;20.60;60.10;;;;;;4981244;28;20305;-72
2023/07/22 02:35:16;;;;;;;;;;;20.60;60.20;;;;;;4980910;28;19965;-73
2023/07/22 02:37:42;;;;;;;;;;;20.60;60.20;;;;;;4977519;28;19993;-73
2023/07/22 02:40:11;;;;;;;;;;;20.60;60.30;;;;;;4981332;28;19926;-72
2023/07/22 02:42:37;;;;;;;;;;;20.50;60.30;;;;;;4974387;28;19984;-72
2023/07/22 02:45:04;;;;;;;;;;;20.50;60.40;;;;;;4984105;28;19937;-71
2023/07/22 02:47:33;;;;;;;;;;;20.50;60.40;;;;;;4984446;28;20722;-71
2023/07/22 02:50:00;;;;;;;;;;;20.50;61.20;;;;;;4982674;28;19952;-71
2023/07/22 02:52:27;;;;;;;;;;;20.40;60.50;;;;;;4981529;28;19930;-72
2023/07/22 02:55:07;;;;;;;;;;;20.40;60.40;;;;;;4989664;28;19983;-72
2023/07/22 02:57:34;;;;;;;;;;;20.40;60.60;;;;;;4980381;28;19944;-73
2023/07/22 03:00:05;;;;;;;;;;;20.40;60.60;;;;;;4986104;28;19953;-74
2023/07/22 03:02:31;;;;;;;;;;;20.40;60.70;;;;;;5001584;28;19964;-74
2023/07/22 03:04:58;;;;;;;;;;;20.30;60.60;;;;;;5004041;28;20466;-72
2023/07/22 03:07:27;;;;;;;;;;;20.30;60.60;;;;;;5005174;28;20116;-72
2023/07/22 03:09:53;;;;;;;;;;;20.30;60.60;;;;;;5005481;28;19933;-72
2023/07/22 03:12:20;;;;;;;;;;;20.30;60.70;;;;;;5004902;28;19929;-72
2023/07/22 03:14:46;;;;;;;;;;;20.20;60.70;;;;;;5005431;28;19929;-72
2023/07/22 03:17:14;;;;;;;;;;;20.20;60.70;;;;;;4990709;28;19934;-72
2023/07/22 03:19:40;;;;;;;;;;;20.20;60.70;;;;;;4985576;28;19992;-72
2023/07/22 03:22:07;;;;;;;;;;;20.20;60.80;;;;;;4987770;28;20438;-71
2023/07/22 03:24:35;;;;;;;;;;;20.20;60.80;;;;;;4984473;28;19941;-75
2023/07/22 03:27:01;;;;;;;;;;;20.10;60.90;;;;;;4982217;28;20224;-72
2023/07/22 03:29:28;;;;;;;;;;;20.20;61.00;;;;;;4988978;28;20450;-72
2023/07/22 03:31:57;;;;;;;;;;;20.10;60.90;;;;;;4984766;28;19942;-72
2023/07/22 03:34:23;;;;;;;;;;;20.10;60.90;;;;;;4989865;28;19984;-72
2023/07/22 03:36:50;;;;;;;;;;;20.10;61.00;;;;;;4985720;28;19936;-72
2023/07/22 03:39:16;;;;;;;;;;;20.00;60.90;;;;;;4991013;28;19929;-72
2023/07/22 03:41:44;;;;;;;;;;;20.00;61.00;;;;;;4990266;28;19938;-73
2023/07/22 03:44:11;;;;;;;;;;;20.00;61.00;;;;;;4991021;28;19938;-72
2023/07/22 03:46:37;;;;;;;;;;;20.00;61.10;;;;;;4987962;28;19937;-72
2023/07/22 03:49:04;;;;;;;;;;;20.00;61.10;;;;;;4987839;28;20605;-72
2023/07/22 03:51:31;;;;;;;;;;;19.90;61.10;;;;;;4983328;28;19933;-72
2023/07/22 03:53:58;;;;;;;;;;;19.90;61.10;;;;;;4985931;28;19929;-72
2023/07/22 03:56:24;;;;;;;;;;;19.90;61.10;;;;;;4987437;28;19929;-72
2023/07/22 03:58:52;;;;;;;;;;;19.90;61.10;;;;;;4989132;28;19936;-72
2023/07/22 04:01:19;;;;;;;;;;;19.80;61.10;;;;;;4993524;28;19940;-71
2023/07/22 04:03:45;;;;;;;;;;;19.80;61.20;;;;;;4988820;28;20390;-75
2023/07/22 04:06:12;;;;;;;;;;;19.80;61.20;;;;;;4988116;28;20315;-72
2023/07/22 04:08:38;;;;;;;;;;;19.70;61.20;;;;;;4982296;28;19937;-72
2023/07/22 04:11:05;;;;;;;;;;;19.70;61.20;;;;;;4991601;28;19956;-72
2023/07/22 04:13:32;;;;;;;;;;;19.70;61.30;;;;;;4991396;28;20499;-72
2023/07/22 04:16:00;;;;;;;;;;;19.70;61.30;;;;;;4993140;28;19929;-71
2023/07/22 04:18:26;;;;;;;;;;;19.60;61.40;;;;;;4988009;28;19941;-72
2023/07/22 04:20:56;;;;;;;;;;;19.60;61.40;;;;;;4991186;28;19929;-71
2023/07/22 04:23:22;;;;;;;;;;;19.60;61.50;;;;;;4990598;28;20297;-71
2023/07/22 04:25:49;;;;;;;;;;;19.60;61.50;;;;;;4983122;28;20443;-72
2023/07/22 04:28:15;;;;;;;;;;;19.60;61.60;;;;;;4986080;28;19929;-72
2023/07/22 04:30:42;;;;;;;;;;;19.50;61.50;;;;;;4990927;28;19990;-72
2023/07/22 04:33:10;;;;;;;;;;;19.50;61.50;;;;;;4986212;28;20311;-71
2023/07/22 04:35:37;;;;;;;;;;;19.50;61.50;;;;;;4988946;28;20466;-72
2023/07/22 04:38:04;;;;;;;;;;;19.50;61.60;;;;;;4985124;28;21222;-72
2023/07/22 04:40:31;;;;;;;;;;;19.50;61.50;;;;;;4982177;28;20395;-72
2023/07/22 04:42:57;;;;;;;;;;;19.40;61.50;;;;;;4980054;28;20367;-71
2023/07/22 04:45:24;;;;;;;;;;;19.40;61.60;;;;;;4988722;28;19977;-71
2023/07/22 04:47:51;;;;;;;;;;;19.40;61.60;;;;;;5004522;28;20020;-72
2023/07/22 04:50:19;;;;;;;;;;;19.40;61.60;;;;;;5006513;28;19937;-72
2023/07/22 04:52:46;;;;;;;;;;;19.40;61.60;;;;;;5001153;28;19984;-71
2023/07/22 04:55:13;;;;;;;;;;;19.40;61.70;;;;;;5000589;28;20289;-72
2023/07/22 04:57:40;;;;;;;;;;;19.30;61.70;;;;;;5006234;28;20457;-72
2023/07/22 05:00:09;;;;;;;;;;;19.30;61.70;;;;;;5007955;28;19930;-72
2023/07/22 05:02:36;;;;;;;;;;;19.30;61.80;;;;;;4999426;28;20012;-72
2023/07/22 05:05:03;;;;;;;;;;;19.30;61.80;;;;;;5004443;28;20391;-71
2023/07/22 05:07:31;;;;;;;;;;;19.30;61.90;;;;;;5005621;28;20505;-72
2023/07/22 05:09:58;;;;;;;;;;;19.20;61.90;;;;;;5005181;28;20454;-72
2023/07/22 05:12:24;;;;;;;;;;;19.20;62.00;;;;;;5006765;28;19957;-71
2023/07/22 05:14:51;;;;;;;;;;;19.20;62.10;;;;;;5008136;28;20562;-71
2023/07/22 05:17:18;;;;;;;;;;;19.20;62.20;;;;;;5005268;28;19933;-72
2023/07/22 05:19:44;;;;;;;;;;;19.20;62.20;;;;;;5000758;28;20509;-72
2023/07/22 05:22:11;;;;;;;;;;;19.20;62.30;;;;;;5002323;28;19930;-72
2023/07/22 05:24:39;;;;;;;;;;;19.20;62.40;;;;;;5001944;28;19984;-72
2023/07/22 05:27:05;;;;;;;;;;;19.20;62.50;;;;;;5011280;28;19925;-71
2023/07/22 05:29:32;;;;;;;;;;;19.10;62.50;;;;;;4999640;28;19960;-71
2023/07/22 05:31:58;;;;;;;;;;;19.10;62.70;;;;;;5001810;28;20359;-71
2023/07/22 05:34:25;;;;;;;;;;;19.10;62.70;;;;;;5005445;28;20005;-71
2023/07/22 05:36:51;;;;;;;;;;;19.10;62.80;;;;;;5006188;28;19929;-71
2023/07/22 05:39:18;;;;;;;;;;;19.10;62.80;;;;;;4999205;28;19929;-72
2023/07/22 05:41:46;;;;;;;;;;;19.10;63.00;;;;;;5002016;28;20064;-71
2023/07/22 05:44:13;;;;;;;;;;;19.10;63.00;;;;;;5008755;28;19933;-71
2023/07/22 05:46:39;;;;;;;;;;;19.10;62.90;;;;;;5000110;28;19929;-71
2023/07/22 05:49:06;;;;;;;;;;;19.00;62.90;;;;;;4992849;28;20315;-72
2023/07/22 05:51:32;;;;;;;;;;;19.00;63.00;;;;;;4986355;28;20012;-71
2023/07/22 05:53:59;;;;;;;;;;;19.10;63.10;;;;;;4993161;28;20411;-71
2023/07/22 05:56:25;;;;;;;;;;;19.10;63.20;;;;;;4985850;28;19929;-71
2023/07/22 05:58:54;;;;;;;;;;;19.00;63.20;;;;;;4988417;28;19929;-73
2023/07/22 06:01:21;;;;;;;;;;;19.00;63.20;;;;;;4993266;28;19930;-72
2023/07/22 06:03:48;;;;;;;;;;;19.00;63.30;;;;;;5004216;28;19936;-72
2023/07/22 06:06:14;;;;;;;;;;;19.10;63.40;;;;;;5004385;28;19937;-72
2023/07/22 06:08:41;;;;;;;;;;;19.10;63.40;;;;;;5011284;28;19988;-72
2023/07/22 06:11:08;;;;;;;;;;;19.10;63.50;;;;;;5010771;28;19929;-71
2023/07/22 06:13:34;;;;;;;;;;;19.00;63.40;;;;;;5002914;28;19952;-71
2023/07/22 06:16:02;;;;;;;;;;;19.00;63.40;;;;;;4997824;28;19937;-72
2023/07/22 06:18:29;;;;;;;;;;;19.00;63.60;;;;;;4981866;28;20032;-71
2023/07/22 06:20:55;;;;;;;;;;;19.00;63.70;;;;;;4983475;28;19926;-72
2023/07/22 06:23:22;;;;;;;;;;;19.00;63.80;;;;;;4981384;28;19930;-71
2023/07/22 06:25:48;;;;;;;;;;;19.00;63.90;;;;;;4982809;28;19930;-71
2023/07/22 06:28:15;;;;;;;;;;;19.00;64.00;;;;;;4980302;28;20335;-71
2023/07/22 06:30:42;;;;;;;;;;;19.00;64.00;;;;;;4981694;28;19934;-72
2023/07/22 06:33:10;;;;;;;;;;;19.10;64.10;;;;;;4983319;28;20028;-71
2023/07/22 06:35:36;;;;;;;;;;;19.10;64.00;;;;;;4981372;28;20020;-71
2023/07/22 06:38:03;;;;;;;;;;;19.10;63.90;;;;;;4982195;28;19929;-71
2023/07/22 06:40:29;;;;;;;;;;;19.10;64.00;;;;;;4983776;28;19964;-71
2023/07/22 06:42:56;;;;;;;;;;;19.00;63.90;;;;;;4980529;28;19937;-71
2023/07/22 06:45:22;;;;;;;;;;;19.10;64.10;;;;;;4980723;28;19930;-71
2023/07/22 06:47:49;;;;;;;;;;;19.00;64.00;;;;;;4974727;28;21245;-71
2023/07/22 06:50:17;;;;;;;;;;;19.10;64.10;;;;;;4985106;28;19938;-71
2023/07/22 06:52:43;;;;;;;;;;;19.10;64.10;;;;;;4982788;28;19933;-71
2023/07/22 06:55:10;;;;;;;;;;;19.00;64.00;;;;;;4987427;28;19953;-72
2023/07/22 06:57:37;;;;;;;;;;;19.10;64.00;;;;;;4985506;28;19968;-72
2023/07/22 07:00:05;;;;;;;;;;;19.10;64.00;;;;;;4987500;28;19976;-71
2023/07/22 07:02:31;;;;;;;;;;;19.10;64.00;;;;;;5004001;28;20446;-72
2023/07/22 07:04:58;;;;;;;;;;;19.10;63.90;;;;;;5007421;28;20449;-73
2023/07/22 07:07:26;;;;;;;;;;;19.10;63.90;;;;;;5009746;28;19971;-74
2023/07/22 07:09:52;;;;;;;;;;;19.10;63.80;;;;;;5006311;28;19929;-73
2023/07/22 07:12:19;;;;;;;;;;;19.20;63.90;;;;;;5005786;28;19933;-73
2023/07/22 07:14:45;;;;;;;;;;;19.20;63.90;;;;;;5005118;28;19937;-72
2023/07/22 07:17:12;;;;;;;;;;;19.20;63.90;;;;;;5006823;28;19929;-74
2023/07/22 07:19:38;;;;;;;;;;;19.20;63.90;;;;;;5005483;28;20462;-74
2023/07/22 07:22:05;;;;;;;;;;;19.20;63.90;;;;;;5007413;28;19988;-72
2023/07/22 07:24:33;;;;;;;;;;;19.20;64.00;;;;;;5006478;28;19930;-73
2023/07/22 07:26:59;;;;;;;;;;;19.20;64.10;;;;;;5012204;28;19976;-72
2023/07/22 07:29:26;;;;;;;;;;;19.20;64.00;;;;;;5013536;28;19936;-73
2023/07/22 07:31:52;;;;;;;;;;;19.20;63.90;;;;;;5004341;28;20308;-74
2023/07/22 07:34:19;;;;;;;;;;;19.20;63.80;;;;;;5000831;28;19929;-73
2023/07/22 07:36:45;;;;;;;;;;;19.30;63.80;;;;;;5005576;28;19933;-74
2023/07/22 07:39:12;;;;;;;;;;;19.30;63.80;;;;;;5006037;28;19929;-73
2023/07/22 07:41:40;;;;;;;;;;;19.30;63.80;;;;;;5005394;28;19932;-73
2023/07/22 07:44:07;;;;;;;;;;;19.30;63.80;;;;;;5005012;28;20008;-73
2023/07/22 07:46:33;;;;;;;;;;;19.30;63.80;;;;;;5006576;28;19929;-71
2023/07/22 07:49:01;;;;;;;;;;;19.30;63.80;;;;;;5006157;28;19940;-71
2023/07/22 07:51:29;;;;;;;;;;;19.40;63.80;;;;;;5007574;28;19929;-71
2023/07/22 07:53:56;;;;;;;;;;;19.40;63.70;;;;;;5008496;28;19969;-70
2023/07/22 07:56:23;;;;;;;;;;;19.40;63.60;;;;;;5007760;28;19937;-71
2023/07/22 07:58:51;;;;;;;;;;;19.40;63.70;;;;;;5006627;28;19929;-69
2023/07/22 08:01:18;;;;;;;;;;;19.40;63.60;;;;;;5006482;28;19933;-70
2023/07/22 08:03:45;;;;;;;;;;;19.40;63.60;;;;;;5007804;28;19930;-71
2023/07/22 08:06:12;;;;;;;;;;;19.50;63.60;;;;;;5009691;28;19929;-71
2023/07/22 08:08:39;;;;;;;;;;;19.50;63.50;;;;;;5006206;28;20683;-71
2023/07/22 08:11:07;;;;;;;;;;;19.50;63.60;;;;;;5010816;28;20486;-72
2023/07/22 08:13:34;;;;;;;;;;;19.50;63.60;;;;;;5006722;28;20109;-73
2023/07/22 08:16:03;;;;;;;;;;;19.50;63.50;;;;;;5001734;28;19941;-73
2023/07/22 08:18:29;;;;;;;;;;;19.60;63.50;;;;;;5002593;28;20028;-73
2023/07/22 08:20:56;;;;;;;;;;;19.60;63.30;;;;;;5005680;28;19936;-72
2023/07/22 08:23:23;;;;;;;;;;;19.60;64.20;;;;;;5007987;28;19929;-72
2023/07/22 08:25:49;;;;;;;;;;;19.70;63.30;;;;;;5001821;28;19936;-73
2023/07/22 08:28:16;;;;;;;;;;;19.70;63.30;;;;;;5008532;28;19929;-72
2023/07/22 08:30:44;;;;;;;;;;;19.80;63.20;;;;;;5002914;28;19943;-73
2023/07/22 08:33:12;;;;;;;;;;;19.80;63.00;;;;;;5009252;28;19940;-73
2023/07/22 08:35:39;;;;;;;;;;;19.80;62.80;;;;;;5002616;28;20552;-73
2023/07/22 08:38:06;;;;;;;;;;;19.80;62.50;;;;;;5002723;28;19937;-73
2023/07/22 08:40:36;;;;;;;;;;;19.90;62.20;;;;;;5003409;28;19929;-71
2023/07/22 08:43:02;;;;;;;;;;;19.90;62.00;;;;;;5006658;28;20346;-73
2023/07/22 08:45:32;;;;;;;;;;;20.00;61.80;;;;;;4999381;28;20302;-73
2023/07/22 08:47:59;;;;;;;;;;;20.00;61.50;;;;;;4989219;28;19952;-72
2023/07/22 08:50:29;;;;;;;;;;;20.00;61.40;;;;;;4985057;28;20396;-73
2023/07/22 08:52:55;;;;;;;;;;;20.10;61.30;;;;;;4986419;28;20017;-72
2023/07/22 08:55:22;;;;;;;;;;;20.10;61.10;;;;;;4983677;28;21659;-72
2023/07/22 08:57:49;;;;;;;;;;;20.10;60.90;;;;;;4990742;28;19933;-73
2023/07/22 09:00:16;;;;;;;;;;;20.20;60.80;;;;;;4991033;28;19937;-72
2023/07/22 09:02:43;;;;;;;;;;;20.20;60.60;;;;;;4986981;28;19936;-72
2023/07/22 09:05:10;;;;;;;;;;;20.20;60.10;;;;;;4985103;28;19930;-72
2023/07/22 09:07:38;;;;;;;;;;;20.30;60.20;;;;;;4987486;28;19932;-72
2023/07/22 09:10:07;;;;;;;;;;;20.30;60.10;;;;;;4991520;28;20004;-72
2023/07/22 09:12:39;;;;;;;;;;;20.40;60.30;;;;;;4984099;28;19972;-72
2023/07/22 09:15:07;;;;;;;;;;;20.40;60.20;;;;;;4986577;28;19934;-72
2023/07/22 09:17:34;;;;;;;;;;;20.50;61.00;;;;;;5004950;28;19933;-72
2023/07/22 09:20:00;;;;;;;;;;;20.50;60.20;;;;;;5005416;28;19933;-72
2023/07/22 09:22:27;;;;;;;;;;;20.50;60.00;;;;;;5004279;28;19941;-72
2023/07/22 09:25:12;;;;;;;;;;;20.60;59.70;;;;;;5005282;28;19925;-72
2023/07/22 09:27:39;;;;;;;;;;;20.70;59.70;;;;;;5004719;28;20016;-72
2023/07/22 09:30:20;;;;;;;;;;;20.70;59.50;;;;;;5005333;28;19936;-72
2023/07/22 09:32:47;;;;;;;;;;;20.80;59.40;;;;;;5002670;28;19929;-71
2023/07/22 09:35:13;;;;;;;;;;;20.80;59.30;;;;;;5001471;28;20402;-71
2023/07/22 09:37:40;;;;;;;;;;;20.80;59.10;;;;;;5007233;28;19936;-72
2023/07/22 09:40:16;;;;;;;;;;;20.90;59.10;;;;;;5001857;28;19933;-72
2023/07/22 09:42:44;;;;;;;;;;;20.90;59.10;;;;;;5004715;28;20124;-72
2023/07/22 09:45:10;;;;;;;;;;;21.00;58.90;;;;;;5003632;28;19964;-72
2023/07/22 09:47:40;;;;;;;;;;;21.10;58.80;;;;;;5006349;28;20379;-72
2023/07/22 09:50:07;;;;;;;;;;;21.10;58.70;;;;;;5003176;28;19929;-83
2023/07/22 09:52:34;;;;;;;;;;;21.20;58.60;;;;;;5006129;28;19984;-83
2023/07/22 09:55:00;;;;;;;;;;;21.20;58.40;;;;;;5001490;28;20353;-81
2023/07/22 09:57:28;;;;;;;;;;;21.30;57.70;;;;;;5005460;28;20024;-79
2023/07/22 09:59:55;;;;;;;;;;;21.30;57.40;;;;;;5007327;28;19936;-82
2023/07/22 10:02:22;;;;;;;;;;;21.40;57.20;;;;;;5002924;28;19929;-83
2023/07/22 10:04:49;;;;;;;;;;;21.50;57.20;;;;;;5004504;28;20009;-82
2023/07/22 10:07:18;;;;;;;;;;;21.50;57.20;;;;;;5007980;28;20984;-82
2023/07/22 10:09:46;;;;;;;;;;;21.50;57.20;;;;;;5010009;28;20391;-82
2023/07/22 10:12:14;;;;;;;;;;;21.60;57.20;;;;;;5011028;28;19987;-82
2023/07/22 10:14:43;;;;;;;;;;;21.60;57.20;;;;;;5006028;28;19929;-82
2023/07/22 10:17:10;;;;;;;;;;;21.60;57.10;;;;;;5009644;28;19994;-82
2023/07/22 10:19:37;;;;;;;;;;;21.70;56.80;;;;;;5014615;28;19948;-82
2023/07/22 10:22:04;;;;;;;;;;;21.70;56.80;;;;;;5012219;28;19933;-83
2023/07/22 10:24:32;;;;;;;;;;;21.80;56.90;;;;;;5004474;28;19933;-82
2023/07/22 10:26:58;;;;;;;;;;;21.90;56.80;;;;;;5006081;28;19959;-83
2023/07/22 10:29:26;;;;;;;;;;;21.90;56.50;;;;;;5005999;28;20374;-82
2023/07/22 10:31:55;;;;;;;;;;;22.00;56.20;;;;;;5005992;28;19944;-83
2023/07/22 10:34:22;;;;;;;;;;;22.10;56.20;;;;;;5001794;28;19936;-83
2023/07/22 10:36:48;;;;;;;;;;;22.10;55.80;;;;;;5002002;28;19933;-82
2023/07/22 10:39:25;;;;;;;;;;;22.20;55.80;;;;;;5005358;28;19960;-82
2023/07/22 10:41:58;;;;;;;;;;;22.30;55.70;;;;;;5002570;28;20064;-82
2023/07/22 10:44:26;;;;;;;;;;;22.40;55.50;;;;;;5001766;28;20458;-83
2023/07/22 10:46:58;;;;;;;;;;;22.50;55.40;;;;;;4987855;28;19980;-83
2023/07/22 10:49:28;;;;;;;;;;;22.50;55.00;;;;;;4984426;28;19937;-82
2023/07/22 10:51:58;;;;;;;;;;;22.60;54.70;;;;;;4984481;28;19929;-83
2023/07/22 10:54:34;;;;;;;;;;;22.70;54.60;;;;;;4983611;28;19929;-82
2023/07/22 10:57:03;;;;;;;;;;;22.70;54.50;;;;;;4987014;28;19929;-82
2023/07/22 10:59:33;;;;;;;;;;;22.80;54.10;;;;;;4984721;28;19930;-83
2023/07/22 11:02:00;;;;;;;;;;;22.90;53.90;;;;;;4995628;28;19929;-83
2023/07/22 11:04:30;;;;;;;;;;;22.90;54.00;;;;;;5007409;28;19940;-83
2023/07/22 11:06:57;;;;;;;;;;;23.00;53.80;;;;;;5004803;28;19929;-81
2023/07/22 11:09:34;;;;;;;;;;;23.00;53.60;;;;;;5012805;28;19929;-82
2023/07/22 11:12:01;;;;;;;;;;;23.00;53.40;;;;;;5011866;28;19930;-82
2023/07/22 11:14:29;;;;;;;;;;;23.20;52.50;;;;;;5008397;28;19934;-82
2023/07/22 11:16:57;;;;;;;;;;;23.20;52.00;;;;;;4991152;28;19934;-80
2023/07/22 11:19:26;;;;;;;;;;;23.30;51.40;;;;;;4983675;28;19937;-83
2023/07/22 11:21:53;;;;;;;;;;;23.40;51.80;;;;;;4984952;28;19936;-82
2023/07/22 11:24:20;;;;;;;;;;;23.40;52.00;;;;;;4979565;28;19937;-82
2023/07/22 11:26:47;;;;;;;;;;;23.50;51.40;;;;;;4983401;28;20304;-82
2023/07/22 11:29:13;;;;;;;;;;;23.60;50.70;;;;;;4982383;28;19934;-82
2023/07/22 11:31:42;;;;;;;;;;;23.60;50.30;;;;;;4979761;28;20576;-83
2023/07/22 11:34:09;;;;;;;;;;;23.70;50.60;;;;;;4982919;28;21117;-80
2023/07/22 11:36:37;;;;;;;;;;;23.80;50.20;;;;;;4985391;28;20021;-82
2023/07/22 11:39:03;;;;;;;;;;;23.90;49.70;;;;;;4987991;28;19929;-82
2023/07/22 11:41:30;;;;;;;;;;;23.90;49.60;;;;;;4982359;28;20580;-82
2023/07/22 11:43:57;;;;;;;;;;;24.00;49.70;;;;;;4987704;28;19948;-82
2023/07/22 11:46:24;;;;;;;;;;;24.00;49.70;;;;;;4989074;28;19937;-81
2023/07/22 11:48:51;;;;;;;;;;;24.10;49.80;;;;;;4989483;28;19929;-81
2023/07/22 11:51:19;;;;;;;;;;;24.10;49.60;;;;;;4984252;28;20021;-81
2023/07/22 11:53:49;;;;;;;;;;;24.20;49.30;;;;;;4987020;28;19930;-80
2023/07/22 11:56:18;;;;;;;;;;;24.20;49.50;;;;;;4986532;28;20729;-81
2023/07/22 11:58:49;;;;;;;;;;;24.20;48.80;;;;;;4982518;28;19930;-83
2023/07/22 12:01:15;;;;;;;;;;;24.30;48.70;;;;;;4984439;28;19934;-82
2023/07/22 12:03:42;;;;;;;;;;;24.30;49.00;;;;;;4983936;28;20660;-82
2023/07/22 12:06:08;;;;;;;;;;;24.30;49.10;;;;;;4987440;28;19937;-81
2023/07/22 12:08:35;;;;;;;;;;;24.40;49.00;;;;;;4989760;28;19932;-82
2023/07/22 12:11:04;;;;;;;;;;;24.40;48.60;;;;;;4991239;28;19930;-82
2023/07/22 12:13:36;;;;;;;;;;;24.50;48.60;;;;;;4986963;28;20038;-82
2023/07/22 12:16:04;;;;;;;;;;;24.50;48.70;;;;;;4979519;28;19930;-83
2023/07/22 12:18:41;;;;;;;;;;;24.50;48.30;;;;;;4987884;28;19940;-82
2023/07/22 12:21:08;;;;;;;;;;;24.60;48.40;;;;;;4985966;28;19934;-80
2023/07/22 12:23:36;;;;;;;;;;;24.60;48.40;;;;;;4984963;28;20273;-80
2023/07/22 12:26:04;;;;;;;;;;;24.70;48.40;;;;;;4986790;28;20284;-80
2023/07/22 12:28:31;;;;;;;;;;;24.70;48.40;;;;;;4984604;28;19934;-80
2023/07/22 12:30:58;;;;;;;;;;;24.80;47.80;;;;;;4986252;28;19937;-80
2023/07/22 12:33:25;;;;;;;;;;;24.80;47.80;;;;;;4986382;28;19973;-80
2023/07/22 12:35:51;;;;;;;;;;;24.90;48.10;;;;;;4985377;28;19961;-80
2023/07/22 12:38:18;;;;;;;;;;;24.90;47.90;;;;;;4986330;28;20380;-80
2023/07/22 12:40:44;;;;;;;;;;;24.90;47.90;;;;;;4987136;28;20339;-80
2023/07/22 12:43:12;;;;;;;;;;;24.90;47.90;;;;;;4988417;28;19953;-81
2023/07/22 12:45:39;;;;;;;;;;;25.00;48.00;;;;;;4985009;28;19929;-82
2023/07/22 12:48:06;;;;;;;;;;;25.10;47.50;;;;;;4983062;28;19937;-82
2023/07/22 12:50:32;;;;;;;;;;;25.10;47.00;;;;;;4983055;28;19933;-82
2023/07/22 12:52:59;;;;;;;;;;;25.10;47.20;;;;;;4987818;28;19952;-82
2023/07/22 12:55:26;;;;;;;;;;;25.20;46.40;;;;;;4985655;28;19941;-81
2023/07/22 12:57:53;;;;;;;;;;;25.30;46.80;;;;;;4983084;28;20481;-83
2023/07/22 13:00:21;;;;;;;;;;;25.30;46.70;;;;;;4985630;28;19930;-84
2023/07/22 13:02:47;;;;;;;;;;;25.40;46.40;;;;;;4984838;28;19930;-82
2023/07/22 13:05:14;;;;;;;;;;;25.40;46.10;;;;;;4984373;28;20542;-83
2023/07/22 13:07:41;;;;;;;;;;;25.40;46.10;;;;;;4983449;28;19964;-84
2023/07/22 13:10:08;;;;;;;;;;;25.50;46.10;;;;;;4983653;28;19929;-84
2023/07/22 13:12:35;;;;;;;;;;;25.50;46.00;;;;;;4984552;28;19929;-84
2023/07/22 13:15:01;;;;;;;;;;;25.60;45.60;;;;;;4982048;28;19930;-84
2023/07/22 13:17:29;;;;;;;;;;;25.60;45.50;;;;;;4984066;28;19934;-84
2023/07/22 13:19:56;;;;;;;;;;;25.60;45.90;;;;;;4985264;28;20412;-84
2023/07/22 13:22:22;;;;;;;;;;;25.70;46.10;;;;;;4982699;28;20313;-83
2023/07/22 13:24:49;;;;;;;;;;;25.80;46.10;;;;;;4980393;28;19937;-83
2023/07/22 13:27:15;;;;;;;;;;;25.80;45.50;;;;;;4985290;28;19939;-83
2023/07/22 13:29:42;;;;;;;;;;;25.80;45.30;;;;;;4986486;28;19933;-84
2023/07/22 13:32:09;;;;;;;;;;;25.90;45.20;;;;;;4987594;28;20442;-83
2023/07/22 13:34:37;;;;;;;;;;;25.90;45.30;;;;;;4979888;28;19937;-84
2023/07/22 13:37:03;;;;;;;;;;;25.90;45.20;;;;;;4983506;28;19936;-84
2023/07/22 13:39:30;;;;;;;;;;;25.90;44.90;;;;;;4985175;28;20551;-84
2023/07/22 13:41:56;;;;;;;;;;;25.90;44.60;;;;;;4985261;28;20498;-84
2023/07/22 13:44:23;;;;;;;;;;;26.00;44.20;;;;;;4984347;28;19929;-84
2023/07/22 13:46:49;;;;;;;;;;;26.00;44.30;;;;;;4986845;28;19930;-82
2023/07/22 13:49:17;;;;;;;;;;;26.00;43.40;;;;;;4980849;28;19949;-82
2023/07/22 13:51:45;;;;;;;;;;;26.10;43.30;;;;;;4979169;28;19977;-83
2023/07/22 13:54:11;;;;;;;;;;;26.20;42.80;;;;;;4979465;28;19941;-84
2023/07/22 13:56:38;;;;;;;;;;;26.20;43.00;;;;;;4982661;28;19933;-84
2023/07/22 13:59:04;;;;;;;;;;;26.30;43.30;;;;;;4981018;28;19937;-83
2023/07/22 14:01:31;;;;;;;;;;;26.30;42.60;;;;;;4981613;28;20625;-84
2023/07/22 14:03:58;;;;;;;;;;;26.30;42.70;;;;;;4980112;28;19980;-84
2023/07/22 14:06:25;;;;;;;;;;;26.40;43.00;;;;;;4984235;28;19933;-84
2023/07/22 14:08:52;;;;;;;;;;;26.40;42.70;;;;;;4977614;28;19934;-83
2023/07/22 14:11:19;;;;;;;;;;;26.40;42.90;;;;;;4976376;28;20000;-84
2023/07/22 14:13:46;;;;;;;;;;;26.40;42.80;;;;;;4982668;28;19940;-83
2023/07/22 14:16:12;;;;;;;;;;;26.50;42.20;;;;;;4980052;28;19934;-83